sensor_id;sensor_type;location;lat;lon;timestamp;P1;durP1;ratioP1;P2;durP2;ratioP2
21868;SDS011;11099;41.564;23.296;2023-07-13T00:00:24;5.78;;;4.70;;
21868;SDS011;11099;41.564;23.296;2023-07-13T00:02:50;8.90;;;4.63;;
21868;SDS011;11099;41.564;23.296;2023-07-13T00:05:19;6.50;;;5.05;;
21868;SDS011;11099;41.564;23.296;2023-07-13T00:07:45;4.93;;;4.53;;
21868;SDS011;11099;41.564;23.296;2023-07-13T00:10:11;8.02;;;4.80;;
21868;SDS011;11099;41.564;23.296;2023-07-13T00:12:37;5.18;;;4.68;;
21868;SDS011;11099;41.564;23.296;2023-07-13T00:15:04;5.57;;;4.75;;
21868;SDS011;11099;41.564;23.296;2023-07-13T00:17:33;5.53;;;4.47;;
21868;SDS011;11099;41.564;23.296;2023-07-13T00:19:59;5.22;;;4.72;;
21868;SDS011;11099;41.564;23.296;2023-07-13T00:22:25;5.05;;;4.60;;
21868;SDS011;11099;41.564;23.296;2023-07-13T00:24:52;6.32;;;4.80;;
21868;SDS011;11099;41.564;23.296;2023-07-13T00:27:18;8.05;;;4.47;;
21868;SDS011;11099;41.564;23.296;2023-07-13T00:29:44;5.82;;;5.20;;
21868;SDS011;11099;41.564;23.296;2023-07-13T00:32:10;5.72;;;5.13;;
21868;SDS011;11099;41.564;23.296;2023-07-13T00:34:37;5.40;;;4.95;;
21868;SDS011;11099;41.564;23.296;2023-07-13T00:37:03;7.70;;;5.40;;
21868;SDS011;11099;41.564;23.296;2023-07-13T00:39:32;5.90;;;5.22;;
21868;SDS011;11099;41.564;23.296;2023-07-13T00:41:58;4.95;;;4.55;;
21868;SDS011;11099;41.564;23.296;2023-07-13T00:44:24;6.00;;;5.13;;
21868;SDS011;11099;41.564;23.296;2023-07-13T00:46:50;7.85;;;5.35;;
21868;SDS011;11099;41.564;23.296;2023-07-13T00:49:17;6.45;;;5.07;;
21868;SDS011;11099;41.564;23.296;2023-07-13T00:51:49;6.90;;;5.65;;
21868;SDS011;11099;41.564;23.296;2023-07-13T00:54:19;6.63;;;4.88;;
21868;SDS011;11099;41.564;23.296;2023-07-13T00:59:24;5.70;;;4.40;;
21868;SDS011;11099;41.564;23.296;2023-07-13T01:01:50;6.13;;;4.65;;
21868;SDS011;11099;41.564;23.296;2023-07-13T01:04:17;5.53;;;5.05;;
21868;SDS011;11099;41.564;23.296;2023-07-13T01:06:43;6.90;;;5.20;;
21868;SDS011;11099;41.564;23.296;2023-07-13T01:09:12;5.63;;;5.10;;
21868;SDS011;11099;41.564;23.296;2023-07-13T01:11:41;6.53;;;5.47;;
21868;SDS011;11099;41.564;23.296;2023-07-13T01:14:07;7.18;;;4.80;;
21868;SDS011;11099;41.564;23.296;2023-07-13T01:16:33;7.22;;;4.85;;
21868;SDS011;11099;41.564;23.296;2023-07-13T01:19:00;6.57;;;4.97;;
21868;SDS011;11099;41.564;23.296;2023-07-13T01:21:32;5.82;;;5.22;;
21868;SDS011;11099;41.564;23.296;2023-07-13T01:23:58;9.45;;;5.50;;
21868;SDS011;11099;41.564;23.296;2023-07-13T01:26:24;5.05;;;4.55;;
21868;SDS011;11099;41.564;23.296;2023-07-13T01:28:49;7.88;;;4.60;;
21868;SDS011;11099;41.564;23.296;2023-07-13T01:31:15;5.55;;;4.47;;
21868;SDS011;11099;41.564;23.296;2023-07-13T01:33:41;5.60;;;5.00;;
21868;SDS011;11099;41.564;23.296;2023-07-13T01:36:07;6.32;;;5.20;;
21868;SDS011;11099;41.564;23.296;2023-07-13T01:38:34;6.85;;;5.07;;
21868;SDS011;11099;41.564;23.296;2023-07-13T01:41:01;5.43;;;4.90;;
21868;SDS011;11099;41.564;23.296;2023-07-13T01:43:27;5.38;;;4.88;;
21868;SDS011;11099;41.564;23.296;2023-07-13T01:45:53;5.70;;;5.20;;
21868;SDS011;11099;41.564;23.296;2023-07-13T01:48:18;6.00;;;4.55;;
21868;SDS011;11099;41.564;23.296;2023-07-13T01:50:45;8.02;;;5.45;;
21868;SDS011;11099;41.564;23.296;2023-07-13T01:53:10;5.93;;;5.10;;
21868;SDS011;11099;41.564;23.296;2023-07-13T01:55:36;6.25;;;5.30;;
21868;SDS011;11099;41.564;23.296;2023-07-13T01:58:02;5.90;;;5.40;;
21868;SDS011;11099;41.564;23.296;2023-07-13T02:00:29;7.43;;;5.68;;
21868;SDS011;11099;41.564;23.296;2023-07-13T02:02:54;5.45;;;4.93;;
21868;SDS011;11099;41.564;23.296;2023-07-13T02:05:20;11.93;;;5.85;;
21868;SDS011;11099;41.564;23.296;2023-07-13T02:07:46;7.13;;;5.32;;
21868;SDS011;11099;41.564;23.296;2023-07-13T02:10:12;6.60;;;5.35;;
21868;SDS011;11099;41.564;23.296;2023-07-13T02:12:37;5.40;;;4.90;;
21868;SDS011;11099;41.564;23.296;2023-07-13T02:15:04;8.10;;;5.00;;
21868;SDS011;11099;41.564;23.296;2023-07-13T02:17:30;7.03;;;4.88;;
21868;SDS011;11099;41.564;23.296;2023-07-13T02:19:57;7.22;;;5.05;;
21868;SDS011;11099;41.564;23.296;2023-07-13T02:22:22;6.35;;;5.00;;
21868;SDS011;11099;41.564;23.296;2023-07-13T02:24:48;8.57;;;5.65;;
21868;SDS011;11099;41.564;23.296;2023-07-13T02:27:14;9.13;;;5.40;;
21868;SDS011;11099;41.564;23.296;2023-07-13T02:29:40;5.55;;;5.05;;
21868;SDS011;11099;41.564;23.296;2023-07-13T02:32:05;5.55;;;5.05;;
21868;SDS011;11099;41.564;23.296;2023-07-13T02:34:31;7.35;;;4.97;;
21868;SDS011;11099;41.564;23.296;2023-07-13T02:36:57;6.90;;;5.38;;
21868;SDS011;11099;41.564;23.296;2023-07-13T02:39:23;5.78;;;5.10;;
21868;SDS011;11099;41.564;23.296;2023-07-13T02:41:48;8.02;;;5.65;;
21868;SDS011;11099;41.564;23.296;2023-07-13T02:44:14;5.85;;;4.80;;
21868;SDS011;11099;41.564;23.296;2023-07-13T02:46:40;6.05;;;5.47;;
21868;SDS011;11099;41.564;23.296;2023-07-13T02:49:06;7.22;;;5.18;;
21868;SDS011;11099;41.564;23.296;2023-07-13T02:51:32;7.22;;;5.30;;
21868;SDS011;11099;41.564;23.296;2023-07-13T02:53:59;7.18;;;5.45;;
21868;SDS011;11099;41.564;23.296;2023-07-13T02:56:29;5.68;;;5.07;;
21868;SDS011;11099;41.564;23.296;2023-07-13T02:58:56;7.90;;;5.63;;
21868;SDS011;11099;41.564;23.296;2023-07-13T03:01:22;6.18;;;5.65;;
21868;SDS011;11099;41.564;23.296;2023-07-13T03:03:49;7.15;;;5.22;;
21868;SDS011;11099;41.564;23.296;2023-07-13T03:06:15;6.82;;;5.45;;
21868;SDS011;11099;41.564;23.296;2023-07-13T03:08:41;6.95;;;6.18;;
21868;SDS011;11099;41.564;23.296;2023-07-13T03:11:08;6.38;;;5.85;;
21868;SDS011;11099;41.564;23.296;2023-07-13T03:13:36;8.00;;;6.15;;
21868;SDS011;11099;41.564;23.296;2023-07-13T03:16:02;6.90;;;6.28;;
21868;SDS011;11099;41.564;23.296;2023-07-13T03:18:28;8.23;;;5.75;;
21868;SDS011;11099;41.564;23.296;2023-07-13T03:20:54;10.57;;;5.95;;
21868;SDS011;11099;41.564;23.296;2023-07-13T03:23:20;6.72;;;5.78;;
21868;SDS011;11099;41.564;23.296;2023-07-13T03:25:46;8.52;;;5.65;;
21868;SDS011;11099;41.564;23.296;2023-07-13T03:28:12;5.63;;;5.03;;
21868;SDS011;11099;41.564;23.296;2023-07-13T03:30:39;5.70;;;5.13;;
21868;SDS011;11099;41.564;23.296;2023-07-13T03:33:04;8.13;;;5.75;;
21868;SDS011;11099;41.564;23.296;2023-07-13T03:35:30;5.88;;;5.30;;
21868;SDS011;11099;41.564;23.296;2023-07-13T03:37:57;6.93;;;6.22;;
21868;SDS011;11099;41.564;23.296;2023-07-13T03:40:24;9.98;;;6.20;;
21868;SDS011;11099;41.564;23.296;2023-07-13T03:42:51;12.60;;;6.80;;
21868;SDS011;11099;41.564;23.296;2023-07-13T03:45:17;13.90;;;6.97;;
21868;SDS011;11099;41.564;23.296;2023-07-13T03:47:42;9.48;;;7.53;;
21868;SDS011;11099;41.564;23.296;2023-07-13T03:50:08;14.20;;;7.05;;
21868;SDS011;11099;41.564;23.296;2023-07-13T03:52:33;10.02;;;6.40;;
21868;SDS011;11099;41.564;23.296;2023-07-13T03:54:59;10.88;;;7.28;;
21868;SDS011;11099;41.564;23.296;2023-07-13T03:57:25;6.95;;;6.15;;
21868;SDS011;11099;41.564;23.296;2023-07-13T03:59:50;7.32;;;5.75;;
21868;SDS011;11099;41.564;23.296;2023-07-13T04:02:16;6.97;;;5.95;;
21868;SDS011;11099;41.564;23.296;2023-07-13T04:04:42;10.63;;;6.32;;
21868;SDS011;11099;41.564;23.296;2023-07-13T04:07:08;6.00;;;5.40;;
21868;SDS011;11099;41.564;23.296;2023-07-13T04:09:34;13.63;;;6.00;;
21868;SDS011;11099;41.564;23.296;2023-07-13T04:12:00;8.20;;;5.60;;
21868;SDS011;11099;41.564;23.296;2023-07-13T04:14:26;10.00;;;5.80;;
21868;SDS011;11099;41.564;23.296;2023-07-13T04:16:51;7.82;;;5.95;;
21868;SDS011;11099;41.564;23.296;2023-07-13T04:19:19;6.57;;;5.75;;
21868;SDS011;11099;41.564;23.296;2023-07-13T04:21:45;6.65;;;5.03;;
21868;SDS011;11099;41.564;23.296;2023-07-13T04:24:11;7.07;;;5.70;;
21868;SDS011;11099;41.564;23.296;2023-07-13T04:26:37;6.65;;;5.47;;
21868;SDS011;11099;41.564;23.296;2023-07-13T04:29:03;9.65;;;5.95;;
21868;SDS011;11099;41.564;23.296;2023-07-13T04:31:29;8.43;;;6.07;;
21868;SDS011;11099;41.564;23.296;2023-07-13T04:33:55;7.00;;;5.70;;
21868;SDS011;11099;41.564;23.296;2023-07-13T04:36:21;8.25;;;6.45;;
21868;SDS011;11099;41.564;23.296;2023-07-13T04:38:46;6.18;;;5.57;;
21868;SDS011;11099;41.564;23.296;2023-07-13T04:41:12;6.28;;;5.60;;
21868;SDS011;11099;41.564;23.296;2023-07-13T04:43:39;9.88;;;7.05;;
21868;SDS011;11099;41.564;23.296;2023-07-13T04:46:08;8.55;;;5.82;;
21868;SDS011;11099;41.564;23.296;2023-07-13T04:48:36;6.30;;;5.68;;
21868;SDS011;11099;41.564;23.296;2023-07-13T04:51:02;6.57;;;5.95;;
21868;SDS011;11099;41.564;23.296;2023-07-13T04:53:29;9.55;;;7.03;;
21868;SDS011;11099;41.564;23.296;2023-07-13T04:55:55;7.07;;;6.38;;
21868;SDS011;11099;41.564;23.296;2023-07-13T04:58:21;9.05;;;6.30;;
21868;SDS011;11099;41.564;23.296;2023-07-13T05:00:47;8.38;;;6.10;;
21868;SDS011;11099;41.564;23.296;2023-07-13T05:03:12;9.43;;;5.35;;
21868;SDS011;11099;41.564;23.296;2023-07-13T05:05:38;9.45;;;5.80;;
21868;SDS011;11099;41.564;23.296;2023-07-13T05:08:04;7.18;;;5.63;;
21868;SDS011;11099;41.564;23.296;2023-07-13T05:10:29;6.88;;;5.80;;
21868;SDS011;11099;41.564;23.296;2023-07-13T05:12:55;7.55;;;5.93;;
21868;SDS011;11099;41.564;23.296;2023-07-13T05:15:21;8.23;;;5.90;;
21868;SDS011;11099;41.564;23.296;2023-07-13T05:17:48;6.13;;;5.47;;
21868;SDS011;11099;41.564;23.296;2023-07-13T05:20:14;6.65;;;5.93;;
21868;SDS011;11099;41.564;23.296;2023-07-13T05:22:41;7.50;;;6.10;;
21868;SDS011;11099;41.564;23.296;2023-07-13T05:25:07;7.00;;;6.30;;
21868;SDS011;11099;41.564;23.296;2023-07-13T05:27:33;7.10;;;6.20;;
21868;SDS011;11099;41.564;23.296;2023-07-13T05:30:00;6.45;;;5.90;;
21868;SDS011;11099;41.564;23.296;2023-07-13T05:32:26;6.55;;;5.95;;
21868;SDS011;11099;41.564;23.296;2023-07-13T05:34:51;6.47;;;5.88;;
21868;SDS011;11099;41.564;23.296;2023-07-13T05:37:17;7.47;;;5.95;;
21868;SDS011;11099;41.564;23.296;2023-07-13T05:39:43;6.88;;;6.18;;
21868;SDS011;11099;41.564;23.296;2023-07-13T05:42:08;10.18;;;6.30;;
21868;SDS011;11099;41.564;23.296;2023-07-13T05:44:34;8.27;;;7.20;;
21868;SDS011;11099;41.564;23.296;2023-07-13T05:47:00;7.07;;;6.03;;
21868;SDS011;11099;41.564;23.296;2023-07-13T05:49:25;6.85;;;5.63;;
21868;SDS011;11099;41.564;23.296;2023-07-13T05:51:51;6.53;;;6.03;;
21868;SDS011;11099;41.564;23.296;2023-07-13T05:54:16;7.43;;;6.65;;
21868;SDS011;11099;41.564;23.296;2023-07-13T05:56:42;8.10;;;7.00;;
21868;SDS011;11099;41.564;23.296;2023-07-13T05:59:07;9.32;;;6.57;;
21868;SDS011;11099;41.564;23.296;2023-07-13T06:01:33;9.98;;;6.57;;
21868;SDS011;11099;41.564;23.296;2023-07-13T06:03:58;7.20;;;6.50;;
21868;SDS011;11099;41.564;23.296;2023-07-13T06:06:24;8.18;;;6.55;;
21868;SDS011;11099;41.564;23.296;2023-07-13T06:08:49;7.80;;;7.10;;
21868;SDS011;11099;41.564;23.296;2023-07-13T06:11:17;7.45;;;6.78;;
21868;SDS011;11099;41.564;23.296;2023-07-13T06:13:44;10.98;;;6.97;;
21868;SDS011;11099;41.564;23.296;2023-07-13T06:16:10;9.13;;;6.93;;
21868;SDS011;11099;41.564;23.296;2023-07-13T06:18:36;8.05;;;6.63;;
21868;SDS011;11099;41.564;23.296;2023-07-13T06:21:09;13.80;;;7.88;;
21868;SDS011;11099;41.564;23.296;2023-07-13T06:23:36;8.90;;;7.22;;
21868;SDS011;11099;41.564;23.296;2023-07-13T06:26:02;9.43;;;6.82;;
21868;SDS011;11099;41.564;23.296;2023-07-13T06:28:28;11.45;;;7.32;;
21868;SDS011;11099;41.564;23.296;2023-07-13T06:30:55;10.50;;;7.45;;
21868;SDS011;11099;41.564;23.296;2023-07-13T06:33:20;8.35;;;7.47;;
21868;SDS011;11099;41.564;23.296;2023-07-13T06:35:46;12.57;;;6.78;;
21868;SDS011;11099;41.564;23.296;2023-07-13T06:38:11;13.02;;;7.50;;
21868;SDS011;11099;41.564;23.296;2023-07-13T06:40:37;9.48;;;7.10;;
21868;SDS011;11099;41.564;23.296;2023-07-13T06:43:02;10.40;;;7.32;;
21868;SDS011;11099;41.564;23.296;2023-07-13T06:45:27;9.32;;;7.20;;
21868;SDS011;11099;41.564;23.296;2023-07-13T06:47:53;11.80;;;6.80;;
21868;SDS011;11099;41.564;23.296;2023-07-13T06:50:18;12.75;;;6.82;;
21868;SDS011;11099;41.564;23.296;2023-07-13T06:52:44;13.35;;;7.97;;
21868;SDS011;11099;41.564;23.296;2023-07-13T06:55:09;13.75;;;7.45;;
21868;SDS011;11099;41.564;23.296;2023-07-13T06:57:35;12.73;;;7.75;;
21868;SDS011;11099;41.564;23.296;2023-07-13T07:00:00;12.48;;;7.03;;
21868;SDS011;11099;41.564;23.296;2023-07-13T07:02:26;16.25;;;7.07;;
21868;SDS011;11099;41.564;23.296;2023-07-13T07:04:51;9.95;;;7.43;;
21868;SDS011;11099;41.564;23.296;2023-07-13T07:07:17;14.43;;;9.68;;
21868;SDS011;11099;41.564;23.296;2023-07-13T07:09:42;10.32;;;7.65;;
21868;SDS011;11099;41.564;23.296;2023-07-13T07:12:08;10.70;;;7.00;;
21868;SDS011;11099;41.564;23.296;2023-07-13T07:14:33;13.05;;;6.88;;
21868;SDS011;11099;41.564;23.296;2023-07-13T07:16:59;21.77;;;8.43;;
21868;SDS011;11099;41.564;23.296;2023-07-13T07:19:25;13.00;;;7.50;;
21868;SDS011;11099;41.564;23.296;2023-07-13T07:21:51;10.90;;;6.75;;
21868;SDS011;11099;41.564;23.296;2023-07-13T07:24:16;9.35;;;7.05;;
21868;SDS011;11099;41.564;23.296;2023-07-13T07:26:42;8.73;;;6.60;;
21868;SDS011;11099;41.564;23.296;2023-07-13T07:29:07;10.65;;;7.13;;
21868;SDS011;11099;41.564;23.296;2023-07-13T07:31:33;11.73;;;7.13;;
21868;SDS011;11099;41.564;23.296;2023-07-13T07:33:59;14.20;;;7.00;;
21868;SDS011;11099;41.564;23.296;2023-07-13T07:36:25;8.07;;;6.90;;
21868;SDS011;11099;41.564;23.296;2023-07-13T07:38:50;15.15;;;7.43;;
21868;SDS011;11099;41.564;23.296;2023-07-13T07:41:16;11.65;;;7.70;;
21868;SDS011;11099;41.564;23.296;2023-07-13T07:43:41;9.85;;;7.55;;
21868;SDS011;11099;41.564;23.296;2023-07-13T07:46:06;9.05;;;7.63;;
21868;SDS011;11099;41.564;23.296;2023-07-13T07:48:32;11.80;;;7.75;;
21868;SDS011;11099;41.564;23.296;2023-07-13T07:50:57;10.23;;;6.78;;
21868;SDS011;11099;41.564;23.296;2023-07-13T07:53:23;11.05;;;6.80;;
21868;SDS011;11099;41.564;23.296;2023-07-13T07:55:48;13.15;;;7.28;;
21868;SDS011;11099;41.564;23.296;2023-07-13T07:58:14;11.07;;;7.18;;
21868;SDS011;11099;41.564;23.296;2023-07-13T08:00:40;13.40;;;7.97;;
21868;SDS011;11099;41.564;23.296;2023-07-13T08:03:06;15.63;;;7.45;;
21868;SDS011;11099;41.564;23.296;2023-07-13T08:05:31;7.82;;;6.57;;
21868;SDS011;11099;41.564;23.296;2023-07-13T08:07:57;9.55;;;6.82;;
21868;SDS011;11099;41.564;23.296;2023-07-13T08:10:22;7.88;;;7.07;;
21868;SDS011;11099;41.564;23.296;2023-07-13T08:12:48;8.10;;;6.55;;
21868;SDS011;11099;41.564;23.296;2023-07-13T08:15:14;8.05;;;6.75;;
21868;SDS011;11099;41.564;23.296;2023-07-13T08:17:41;8.77;;;7.00;;
21868;SDS011;11099;41.564;23.296;2023-07-13T08:20:06;9.10;;;6.43;;
21868;SDS011;11099;41.564;23.296;2023-07-13T08:22:34;7.18;;;6.47;;
21868;SDS011;11099;41.564;23.296;2023-07-13T08:25:00;7.10;;;6.40;;
21868;SDS011;11099;41.564;23.296;2023-07-13T08:27:27;10.27;;;6.70;;
21868;SDS011;11099;41.564;23.296;2023-07-13T08:29:53;6.65;;;6.05;;
21868;SDS011;11099;41.564;23.296;2023-07-13T08:32:20;7.82;;;6.35;;
21868;SDS011;11099;41.564;23.296;2023-07-13T08:34:47;7.77;;;6.97;;
21868;SDS011;11099;41.564;23.296;2023-07-13T08:37:13;10.20;;;6.50;;
21868;SDS011;11099;41.564;23.296;2023-07-13T08:39:39;8.45;;;6.60;;
21868;SDS011;11099;41.564;23.296;2023-07-13T08:45:06;7.20;;;6.50;;
21868;SDS011;11099;41.564;23.296;2023-07-13T08:47:39;6.90;;;6.15;;
21868;SDS011;11099;41.564;23.296;2023-07-13T08:50:14;11.60;;;6.38;;
21868;SDS011;11099;41.564;23.296;2023-07-13T08:52:42;6.55;;;5.95;;
21868;SDS011;11099;41.564;23.296;2023-07-13T08:55:16;6.85;;;6.25;;
21868;SDS011;11099;41.564;23.296;2023-07-13T08:57:45;7.07;;;6.05;;
21868;SDS011;11099;41.564;23.296;2023-07-13T09:00:18;6.40;;;5.65;;
21868;SDS011;11099;41.564;23.296;2023-07-13T09:02:57;7.80;;;5.65;;
21868;SDS011;11099;41.564;23.296;2023-07-13T09:10:20;6.43;;;5.50;;
21868;SDS011;11099;41.564;23.296;2023-07-13T09:13:20;7.97;;;5.82;;
21868;SDS011;11099;41.564;23.296;2023-07-13T09:16:07;6.00;;;5.40;;
21868;SDS011;11099;41.564;23.296;2023-07-13T09:18:38;6.75;;;6.00;;
21868;SDS011;11099;41.564;23.296;2023-07-13T09:21:13;9.45;;;6.15;;
21868;SDS011;11099;41.564;23.296;2023-07-13T09:23:41;7.82;;;6.65;;
21868;SDS011;11099;41.564;23.296;2023-07-13T09:26:15;12.23;;;5.88;;
21868;SDS011;11099;41.564;23.296;2023-07-13T09:28:45;7.93;;;5.53;;
21868;SDS011;11099;41.564;23.296;2023-07-13T09:31:15;12.75;;;5.85;;
21868;SDS011;11099;41.564;23.296;2023-07-13T09:33:44;5.70;;;5.25;;
21868;SDS011;11099;41.564;23.296;2023-07-13T09:46:38;6.93;;;5.68;;
21868;SDS011;11099;41.564;23.296;2023-07-13T09:49:11;6.75;;;5.40;;
21868;SDS011;11099;41.564;23.296;2023-07-13T09:51:38;7.95;;;5.85;;
21868;SDS011;11099;41.564;23.296;2023-07-13T09:56:31;5.95;;;5.00;;
21868;SDS011;11099;41.564;23.296;2023-07-13T09:58:57;8.35;;;5.35;;
21868;SDS011;11099;41.564;23.296;2023-07-13T10:01:36;5.85;;;5.35;;
21868;SDS011;11099;41.564;23.296;2023-07-13T10:04:10;7.18;;;5.43;;
21868;SDS011;11099;41.564;23.296;2023-07-13T10:06:38;5.85;;;5.35;;
21868;SDS011;11099;41.564;23.296;2023-07-13T10:09:06;6.00;;;5.32;;
21868;SDS011;11099;41.564;23.296;2023-07-13T10:11:34;5.47;;;5.05;;
21868;SDS011;11099;41.564;23.296;2023-07-13T10:14:01;5.32;;;4.82;;
21868;SDS011;11099;41.564;23.296;2023-07-13T10:16:33;5.35;;;4.95;;
21868;SDS011;11099;41.564;23.296;2023-07-13T10:19:11;7.30;;;5.15;;
21868;SDS011;11099;41.564;23.296;2023-07-13T10:21:47;6.70;;;5.45;;
21868;SDS011;11099;41.564;23.296;2023-07-13T10:24:21;7.55;;;5.55;;
21868;SDS011;11099;41.564;23.296;2023-07-13T10:27:01;6.50;;;5.40;;
21868;SDS011;11099;41.564;23.296;2023-07-13T10:29:39;5.10;;;4.65;;
21868;SDS011;11099;41.564;23.296;2023-07-13T10:32:27;7.38;;;4.85;;
21868;SDS011;11099;41.564;23.296;2023-07-13T10:34:53;7.07;;;4.20;;
21868;SDS011;11099;41.564;23.296;2023-07-13T10:37:22;4.88;;;4.30;;
21868;SDS011;11099;41.564;23.296;2023-07-13T10:39:50;5.13;;;4.28;;
21868;SDS011;11099;41.564;23.296;2023-07-13T10:44:55;6.38;;;4.43;;
21868;SDS011;11099;41.564;23.296;2023-07-13T10:47:21;5.25;;;4.50;;
21868;SDS011;11099;41.564;23.296;2023-07-13T10:49:47;6.22;;;4.72;;
21868;SDS011;11099;41.564;23.296;2023-07-13T10:52:40;5.15;;;4.65;;
21868;SDS011;11099;41.564;23.296;2023-07-13T10:58:20;8.02;;;4.25;;
21868;SDS011;11099;41.564;23.296;2023-07-13T11:03:22;4.30;;;3.90;;
21868;SDS011;11099;41.564;23.296;2023-07-13T11:05:49;5.07;;;4.07;;
21868;SDS011;11099;41.564;23.296;2023-07-13T11:08:33;5.60;;;4.20;;
21868;SDS011;11099;41.564;23.296;2023-07-13T11:11:02;5.78;;;4.22;;
21868;SDS011;11099;41.564;23.296;2023-07-13T11:18:48;4.30;;;3.88;;
21868;SDS011;11099;41.564;23.296;2023-07-13T11:21:19;4.50;;;4.10;;
21868;SDS011;11099;41.564;23.296;2023-07-13T11:23:53;5.97;;;3.80;;
21868;SDS011;11099;41.564;23.296;2023-07-13T11:26:43;5.07;;;3.80;;
21868;SDS011;11099;41.564;23.296;2023-07-13T11:31:57;3.83;;;3.28;;
21868;SDS011;11099;41.564;23.296;2023-07-13T11:34:29;4.22;;;3.60;;
21868;SDS011;11099;41.564;23.296;2023-07-13T11:36:58;6.63;;;3.53;;
21868;SDS011;11099;41.564;23.296;2023-07-13T11:41:57;5.15;;;4.20;;
21868;SDS011;11099;41.564;23.296;2023-07-13T11:44:26;4.40;;;4.10;;
21868;SDS011;11099;41.564;23.296;2023-07-13T11:46:54;4.30;;;4.00;;
21868;SDS011;11099;41.564;23.296;2023-07-13T11:49:23;4.90;;;4.07;;
21868;SDS011;11099;41.564;23.296;2023-07-13T11:51:50;7.13;;;3.95;;
21868;SDS011;11099;41.564;23.296;2023-07-13T11:54:32;7.60;;;4.00;;
21868;SDS011;11099;41.564;23.296;2023-07-13T11:57:01;4.22;;;3.90;;
21868;SDS011;11099;41.564;23.296;2023-07-13T11:59:46;4.18;;;3.50;;
21868;SDS011;11099;41.564;23.296;2023-07-13T12:02:16;4.80;;;3.50;;
21868;SDS011;11099;41.564;23.296;2023-07-13T12:04:54;6.43;;;3.80;;
21868;SDS011;11099;41.564;23.296;2023-07-13T12:07:22;4.55;;;3.55;;
21868;SDS011;11099;41.564;23.296;2023-07-13T12:09:47;5.60;;;4.00;;
21868;SDS011;11099;41.564;23.296;2023-07-13T12:12:21;4.15;;;3.85;;
21868;SDS011;11099;41.564;23.296;2023-07-13T12:14:51;5.55;;;4.30;;
21868;SDS011;11099;41.564;23.296;2023-07-13T12:17:23;6.75;;;4.10;;
21868;SDS011;11099;41.564;23.296;2023-07-13T12:19:51;4.07;;;3.63;;
21868;SDS011;11099;41.564;23.296;2023-07-13T12:22:18;7.00;;;4.35;;
21868;SDS011;11099;41.564;23.296;2023-07-13T12:24:45;5.03;;;3.67;;
21868;SDS011;11099;41.564;23.296;2023-07-13T12:27:22;5.13;;;3.55;;
21868;SDS011;11099;41.564;23.296;2023-07-13T12:29:51;5.68;;;3.50;;
21868;SDS011;11099;41.564;23.296;2023-07-13T12:32:18;4.75;;;3.53;;
21868;SDS011;11099;41.564;23.296;2023-07-13T12:35:06;4.95;;;3.80;;
21868;SDS011;11099;41.564;23.296;2023-07-13T12:37:41;10.70;;;4.00;;
21868;SDS011;11099;41.564;23.296;2023-07-13T12:40:17;4.88;;;3.80;;
21868;SDS011;11099;41.564;23.296;2023-07-13T12:42:47;6.93;;;4.20;;
21868;SDS011;11099;41.564;23.296;2023-07-13T12:45:23;5.63;;;3.83;;
21868;SDS011;11099;41.564;23.296;2023-07-13T12:47:53;5.05;;;3.80;;
21868;SDS011;11099;41.564;23.296;2023-07-13T12:50:28;5.47;;;3.90;;
21868;SDS011;11099;41.564;23.296;2023-07-13T12:53:18;4.60;;;3.88;;
21868;SDS011;11099;41.564;23.296;2023-07-13T13:00:53;8.07;;;4.55;;
21868;SDS011;11099;41.564;23.296;2023-07-13T13:06:04;5.50;;;4.20;;
21868;SDS011;11099;41.564;23.296;2023-07-13T13:08:50;6.38;;;4.68;;
21868;SDS011;11099;41.564;23.296;2023-07-13T13:11:20;4.82;;;4.38;;
21868;SDS011;11099;41.564;23.296;2023-07-13T13:13:48;7.25;;;4.18;;
21868;SDS011;11099;41.564;23.296;2023-07-13T13:16:16;4.40;;;3.90;;
21868;SDS011;11099;41.564;23.296;2023-07-13T13:18:51;6.15;;;4.25;;
21868;SDS011;11099;41.564;23.296;2023-07-13T13:21:18;6.28;;;5.00;;
21868;SDS011;11099;41.564;23.296;2023-07-13T13:23:44;5.10;;;4.70;;
21868;SDS011;11099;41.564;23.296;2023-07-13T13:26:16;8.60;;;4.43;;
21868;SDS011;11099;41.564;23.296;2023-07-13T13:28:44;5.45;;;4.40;;
21868;SDS011;11099;41.564;23.296;2023-07-13T13:31:11;7.30;;;4.53;;
21868;SDS011;11099;41.564;23.296;2023-07-13T13:33:43;6.70;;;4.95;;
21868;SDS011;11099;41.564;23.296;2023-07-13T13:38:43;5.47;;;4.93;;
21868;SDS011;11099;41.564;23.296;2023-07-13T13:41:09;5.40;;;4.60;;
21868;SDS011;11099;41.564;23.296;2023-07-13T13:43:36;6.70;;;4.35;;
21868;SDS011;11099;41.564;23.296;2023-07-13T13:46:02;5.18;;;4.68;;
21868;SDS011;11099;41.564;23.296;2023-07-13T13:48:38;6.45;;;5.07;;
21868;SDS011;11099;41.564;23.296;2023-07-13T13:51:26;6.35;;;4.78;;
21868;SDS011;11099;41.564;23.296;2023-07-13T13:53:51;9.43;;;5.10;;
21868;SDS011;11099;41.564;23.296;2023-07-13T13:56:17;5.05;;;4.63;;
21868;SDS011;11099;41.564;23.296;2023-07-13T13:58:44;5.90;;;4.60;;
21868;SDS011;11099;41.564;23.296;2023-07-13T14:01:27;6.72;;;4.57;;
21868;SDS011;11099;41.564;23.296;2023-07-13T14:03:54;5.30;;;4.80;;
21868;SDS011;11099;41.564;23.296;2023-07-13T14:06:21;6.22;;;4.82;;
21868;SDS011;11099;41.564;23.296;2023-07-13T14:08:46;5.50;;;4.80;;
21868;SDS011;11099;41.564;23.296;2023-07-13T14:11:13;7.78;;;4.70;;
21868;SDS011;11099;41.564;23.296;2023-07-13T14:13:44;6.75;;;4.50;;
21868;SDS011;11099;41.564;23.296;2023-07-13T14:16:18;5.38;;;4.88;;
21868;SDS011;11099;41.564;23.296;2023-07-13T14:18:46;7.60;;;4.85;;
21868;SDS011;11099;41.564;23.296;2023-07-13T14:21:18;5.15;;;4.75;;
21868;SDS011;11099;41.564;23.296;2023-07-13T14:23:46;7.32;;;4.93;;
21868;SDS011;11099;41.564;23.296;2023-07-13T14:26:14;5.50;;;5.00;;
21868;SDS011;11099;41.564;23.296;2023-07-13T14:31:08;5.10;;;4.60;;
21868;SDS011;11099;41.564;23.296;2023-07-13T14:33:34;8.18;;;5.53;;
21868;SDS011;11099;41.564;23.296;2023-07-13T14:36:00;8.48;;;5.07;;
21868;SDS011;11099;41.564;23.296;2023-07-13T14:38:25;5.78;;;5.22;;
21868;SDS011;11099;41.564;23.296;2023-07-13T14:40:51;6.65;;;5.28;;
21868;SDS011;11099;41.564;23.296;2023-07-13T14:43:17;8.10;;;5.10;;
21868;SDS011;11099;41.564;23.296;2023-07-13T14:45:44;5.30;;;4.80;;
21868;SDS011;11099;41.564;23.296;2023-07-13T14:48:15;6.57;;;5.35;;
21868;SDS011;11099;41.564;23.296;2023-07-13T14:50:44;6.90;;;4.85;;
21868;SDS011;11099;41.564;23.296;2023-07-13T14:53:11;6.97;;;5.05;;
21868;SDS011;11099;41.564;23.296;2023-07-13T14:55:38;8.35;;;5.05;;
21868;SDS011;11099;41.564;23.296;2023-07-13T14:58:04;6.15;;;5.13;;
21868;SDS011;11099;41.564;23.296;2023-07-13T15:00:30;8.68;;;4.97;;
21868;SDS011;11099;41.564;23.296;2023-07-13T15:02:57;6.93;;;4.78;;
21868;SDS011;11099;41.564;23.296;2023-07-13T15:05:27;5.15;;;4.50;;
21868;SDS011;11099;41.564;23.296;2023-07-13T15:07:56;5.40;;;4.88;;
21868;SDS011;11099;41.564;23.296;2023-07-13T15:10:27;8.48;;;4.93;;
21868;SDS011;11099;41.564;23.296;2023-07-13T15:12:58;5.43;;;4.65;;
21868;SDS011;11099;41.564;23.296;2023-07-13T15:15:27;7.13;;;4.50;;
21868;SDS011;11099;41.564;23.296;2023-07-13T15:17:58;7.32;;;4.80;;
21868;SDS011;11099;41.564;23.296;2023-07-13T15:20:31;5.15;;;4.40;;
21868;SDS011;11099;41.564;23.296;2023-07-13T15:22:59;7.78;;;4.50;;
21868;SDS011;11099;41.564;23.296;2023-07-13T15:25:25;5.60;;;4.63;;
21868;SDS011;11099;41.564;23.296;2023-07-13T15:30:18;5.68;;;4.60;;
21868;SDS011;11099;41.564;23.296;2023-07-13T15:32:45;9.55;;;4.50;;
21868;SDS011;11099;41.564;23.296;2023-07-13T15:35:18;5.70;;;4.55;;